sensor_id;sensor_type;location;lat;lon;timestamp;P1;durP1;ratioP1;P2;durP2;ratioP2
72205;SDS011;60111;48.286;7.812;2022-07-11T00:02:04;2.50;;;2.00;;
72205;SDS011;60111;48.286;7.812;2022-07-11T00:04:38;3.70;;;2.00;;
72205;SDS011;60111;48.286;7.812;2022-07-11T00:07:11;4.57;;;1.90;;
72205;SDS011;60111;48.286;7.812;2022-07-11T00:09:44;3.33;;;1.90;;
72205;SDS011;60111;48.286;7.812;2022-07-11T00:12:16;5.20;;;2.12;;
72205;SDS011;60111;48.286;7.812;2022-07-11T00:14:51;2.42;;;1.75;;
72205;SDS011;60111;48.286;7.812;2022-07-11T00:17:26;2.77;;;1.90;;
72205;SDS011;60111;48.286;7.812;2022-07-11T00:19:59;3.15;;;2.00;;
72205;SDS011;60111;48.286;7.812;2022-07-11T00:22:32;3.83;;;2.12;;
72205;SDS011;60111;48.286;7.812;2022-07-11T00:25:04;5.15;;;1.85;;
72205;SDS011;60111;48.286;7.812;2022-07-11T00:27:38;3.93;;;1.80;;
72205;SDS011;60111;48.286;7.812;2022-07-11T00:30:11;3.50;;;1.98;;
72205;SDS011;60111;48.286;7.812;2022-07-11T00:32:43;3.15;;;2.25;;
72205;SDS011;60111;48.286;7.812;2022-07-11T00:35:16;3.65;;;2.15;;
72205;SDS011;60111;48.286;7.812;2022-07-11T00:37:49;4.17;;;2.20;;
72205;SDS011;60111;48.286;7.812;2022-07-11T00:40:21;2.10;;;1.90;;
72205;SDS011;60111;48.286;7.812;2022-07-11T00:42:54;3.90;;;2.08;;
72205;SDS011;60111;48.286;7.812;2022-07-11T00:45:27;3.72;;;2.17;;
72205;SDS011;60111;48.286;7.812;2022-07-11T00:47:59;7.12;;;2.58;;
72205;SDS011;60111;48.286;7.812;2022-07-11T00:50:32;5.62;;;2.40;;
72205;SDS011;60111;48.286;7.812;2022-07-11T00:53:04;2.55;;;2.15;;
72205;SDS011;60111;48.286;7.812;2022-07-11T00:55:37;3.77;;;2.17;;
72205;SDS011;60111;48.286;7.812;2022-07-11T00:58:11;2.85;;;2.33;;
72205;SDS011;60111;48.286;7.812;2022-07-11T01:00:45;4.97;;;2.62;;
72205;SDS011;60111;48.286;7.812;2022-07-11T01:03:18;4.78;;;2.30;;
72205;SDS011;60111;48.286;7.812;2022-07-11T01:05:51;2.35;;;2.10;;
72205;SDS011;60111;48.286;7.812;2022-07-11T01:08:23;5.47;;;2.12;;
72205;SDS011;60111;48.286;7.812;2022-07-11T01:10:56;3.77;;;2.10;;
72205;SDS011;60111;48.286;7.812;2022-07-11T01:13:32;4.23;;;2.17;;
72205;SDS011;60111;48.286;7.812;2022-07-11T01:16:08;5.20;;;2.25;;
72205;SDS011;60111;48.286;7.812;2022-07-11T01:18:45;4.60;;;1.90;;
72205;SDS011;60111;48.286;7.812;2022-07-11T01:21:24;5.12;;;2.45;;
72205;SDS011;60111;48.286;7.812;2022-07-11T01:24:12;2.02;;;1.80;;
72205;SDS011;60111;48.286;7.812;2022-07-11T01:26:46;3.90;;;2.20;;
72205;SDS011;60111;48.286;7.812;2022-07-11T01:29:19;2.93;;;2.03;;
72205;SDS011;60111;48.286;7.812;2022-07-11T01:31:52;2.20;;;1.72;;
72205;SDS011;60111;48.286;7.812;2022-07-11T01:34:25;3.95;;;2.12;;
72205;SDS011;60111;48.286;7.812;2022-07-11T01:36:57;3.02;;;2.00;;
72205;SDS011;60111;48.286;7.812;2022-07-11T01:39:30;4.00;;;2.12;;
72205;SDS011;60111;48.286;7.812;2022-07-11T01:42:03;2.95;;;2.00;;
72205;SDS011;60111;48.286;7.812;2022-07-11T01:44:36;3.92;;;1.90;;
72205;SDS011;60111;48.286;7.812;2022-07-11T01:47:09;2.52;;;1.90;;
72205;SDS011;60111;48.286;7.812;2022-07-11T01:49:41;3.45;;;2.10;;
72205;SDS011;60111;48.286;7.812;2022-07-11T01:52:14;2.77;;;2.30;;
72205;SDS011;60111;48.286;7.812;2022-07-11T01:54:46;2.70;;;2.20;;
72205;SDS011;60111;48.286;7.812;2022-07-11T01:57:22;3.60;;;2.30;;
72205;SDS011;60111;48.286;7.812;2022-07-11T01:59:55;2.23;;;2.00;;
72205;SDS011;60111;48.286;7.812;2022-07-11T02:02:27;2.70;;;1.95;;
72205;SDS011;60111;48.286;7.812;2022-07-11T02:05:00;3.42;;;2.12;;
72205;SDS011;60111;48.286;7.812;2022-07-11T02:07:33;2.95;;;2.10;;
72205;SDS011;60111;48.286;7.812;2022-07-11T02:10:23;2.30;;;2.00;;
72205;SDS011;60111;48.286;7.812;2022-07-11T02:12:58;2.45;;;1.80;;
72205;SDS011;60111;48.286;7.812;2022-07-11T02:15:31;2.63;;;1.70;;
72205;SDS011;60111;48.286;7.812;2022-07-11T02:18:03;2.60;;;1.92;;
72205;SDS011;60111;48.286;7.812;2022-07-11T02:20:37;4.03;;;2.25;;
72205;SDS011;60111;48.286;7.812;2022-07-11T02:23:10;2.93;;;2.33;;
72205;SDS011;60111;48.286;7.812;2022-07-11T02:25:43;3.45;;;2.35;;
72205;SDS011;60111;48.286;7.812;2022-07-11T02:28:16;2.10;;;1.90;;
72205;SDS011;60111;48.286;7.812;2022-07-11T02:30:49;2.55;;;2.15;;
72205;SDS011;60111;48.286;7.812;2022-07-11T02:33:21;2.80;;;2.15;;
72205;SDS011;60111;48.286;7.812;2022-07-11T02:35:54;2.80;;;2.30;;
72205;SDS011;60111;48.286;7.812;2022-07-11T02:38:27;2.43;;;2.23;;
72205;SDS011;60111;48.286;7.812;2022-07-11T02:41:00;3.35;;;2.40;;
72205;SDS011;60111;48.286;7.812;2022-07-11T02:43:32;3.05;;;2.47;;
72205;SDS011;60111;48.286;7.812;2022-07-11T02:46:06;3.40;;;2.47;;
72205;SDS011;60111;48.286;7.812;2022-07-11T02:48:38;3.02;;;2.45;;
72205;SDS011;60111;48.286;7.812;2022-07-11T02:51:11;2.85;;;2.00;;
72205;SDS011;60111;48.286;7.812;2022-07-11T02:53:44;3.17;;;2.33;;
72205;SDS011;60111;48.286;7.812;2022-07-11T02:56:16;4.87;;;2.25;;
72205;SDS011;60111;48.286;7.812;2022-07-11T02:58:49;2.90;;;2.53;;
72205;SDS011;60111;48.286;7.812;2022-07-11T03:01:22;2.60;;;2.40;;
72205;SDS011;60111;48.286;7.812;2022-07-11T03:03:54;4.35;;;2.30;;
72205;SDS011;60111;48.286;7.812;2022-07-11T03:06:27;3.20;;;2.33;;
72205;SDS011;60111;48.286;7.812;2022-07-11T03:09:00;3.55;;;2.10;;
72205;SDS011;60111;48.286;7.812;2022-07-11T03:11:33;3.08;;;2.20;;
72205;SDS011;60111;48.286;7.812;2022-07-11T03:14:06;2.20;;;2.00;;
72205;SDS011;60111;48.286;7.812;2022-07-11T03:16:39;3.67;;;2.10;;
72205;SDS011;60111;48.286;7.812;2022-07-11T03:19:12;3.77;;;2.13;;
72205;SDS011;60111;48.286;7.812;2022-07-11T03:21:45;3.52;;;2.25;;
72205;SDS011;60111;48.286;7.812;2022-07-11T03:24:17;2.40;;;2.17;;
72205;SDS011;60111;48.286;7.812;2022-07-11T03:26:50;2.42;;;2.20;;
72205;SDS011;60111;48.286;7.812;2022-07-11T03:29:22;3.02;;;2.45;;
72205;SDS011;60111;48.286;7.812;2022-07-11T03:31:55;3.27;;;2.52;;
72205;SDS011;60111;48.286;7.812;2022-07-11T03:34:28;3.85;;;2.47;;
72205;SDS011;60111;48.286;7.812;2022-07-11T03:37:01;2.85;;;2.50;;
72205;SDS011;60111;48.286;7.812;2022-07-11T03:39:33;4.93;;;2.60;;
72205;SDS011;60111;48.286;7.812;2022-07-11T03:42:06;3.47;;;2.40;;
72205;SDS011;60111;48.286;7.812;2022-07-11T03:44:39;5.08;;;2.87;;
72205;SDS011;60111;48.286;7.812;2022-07-11T03:47:11;4.40;;;2.85;;
72205;SDS011;60111;48.286;7.812;2022-07-11T03:49:44;4.17;;;2.95;;
72205;SDS011;60111;48.286;7.812;2022-07-11T03:52:18;3.50;;;2.90;;
72205;SDS011;60111;48.286;7.812;2022-07-11T03:54:51;3.62;;;2.62;;
72205;SDS011;60111;48.286;7.812;2022-07-11T03:57:23;3.45;;;2.62;;
72205;SDS011;60111;48.286;7.812;2022-07-11T03:59:56;3.00;;;2.70;;
72205;SDS011;60111;48.286;7.812;2022-07-11T04:02:28;4.65;;;2.50;;
72205;SDS011;60111;48.286;7.812;2022-07-11T04:05:01;5.27;;;2.60;;
72205;SDS011;60111;48.286;7.812;2022-07-11T04:07:34;3.90;;;2.80;;
72205;SDS011;60111;48.286;7.812;2022-07-11T04:10:07;3.60;;;2.55;;
72205;SDS011;60111;48.286;7.812;2022-07-11T04:12:40;3.72;;;2.30;;
72205;SDS011;60111;48.286;7.812;2022-07-11T04:15:13;3.85;;;2.55;;
72205;SDS011;60111;48.286;7.812;2022-07-11T04:17:45;1.98;;;1.80;;
72205;SDS011;60111;48.286;7.812;2022-07-11T04:20:18;3.60;;;2.85;;
72205;SDS011;60111;48.286;7.812;2022-07-11T04:22:51;3.80;;;2.40;;
72205;SDS011;60111;48.286;7.812;2022-07-11T04:25:23;2.53;;;2.20;;
72205;SDS011;60111;48.286;7.812;2022-07-11T04:27:56;3.55;;;2.20;;
72205;SDS011;60111;48.286;7.812;2022-07-11T04:30:28;2.95;;;2.20;;
72205;SDS011;60111;48.286;7.812;2022-07-11T04:33:01;3.10;;;2.10;;
72205;SDS011;60111;48.286;7.812;2022-07-11T04:35:34;2.33;;;2.00;;
72205;SDS011;60111;48.286;7.812;2022-07-11T04:38:07;3.05;;;2.00;;
72205;SDS011;60111;48.286;7.812;2022-07-11T04:40:39;3.83;;;1.90;;
72205;SDS011;60111;48.286;7.812;2022-07-11T04:43:12;2.25;;;1.95;;
72205;SDS011;60111;48.286;7.812;2022-07-11T04:45:44;2.17;;;1.98;;
72205;SDS011;60111;48.286;7.812;2022-07-11T04:48:17;3.75;;;2.30;;
72205;SDS011;60111;48.286;7.812;2022-07-11T04:50:50;3.80;;;2.25;;
72205;SDS011;60111;48.286;7.812;2022-07-11T04:53:22;3.87;;;2.15;;
72205;SDS011;60111;48.286;7.812;2022-07-11T04:55:55;4.40;;;2.20;;
72205;SDS011;60111;48.286;7.812;2022-07-11T04:58:28;3.62;;;2.20;;
72205;SDS011;60111;48.286;7.812;2022-07-11T05:01:02;5.95;;;2.47;;
72205;SDS011;60111;48.286;7.812;2022-07-11T05:03:36;4.23;;;2.20;;
72205;SDS011;60111;48.286;7.812;2022-07-11T05:06:09;2.43;;;2.23;;
72205;SDS011;60111;48.286;7.812;2022-07-11T05:08:42;2.92;;;2.33;;
72205;SDS011;60111;48.286;7.812;2022-07-11T05:11:15;2.95;;;2.25;;
72205;SDS011;60111;48.286;7.812;2022-07-11T05:13:47;7.03;;;2.60;;
72205;SDS011;60111;48.286;7.812;2022-07-11T05:16:20;4.62;;;2.70;;
72205;SDS011;60111;48.286;7.812;2022-07-11T05:18:53;8.95;;;3.02;;
72205;SDS011;60111;48.286;7.812;2022-07-11T05:21:26;4.23;;;2.77;;
72205;SDS011;60111;48.286;7.812;2022-07-11T05:23:58;5.53;;;2.53;;
72205;SDS011;60111;48.286;7.812;2022-07-11T05:26:32;9.23;;;3.20;;
72205;SDS011;60111;48.286;7.812;2022-07-11T05:29:04;5.92;;;2.58;;
72205;SDS011;60111;48.286;7.812;2022-07-11T05:31:37;5.10;;;2.92;;
72205;SDS011;60111;48.286;7.812;2022-07-11T05:34:10;4.95;;;2.65;;
72205;SDS011;60111;48.286;7.812;2022-07-11T05:36:43;6.35;;;2.95;;
72205;SDS011;60111;48.286;7.812;2022-07-11T05:39:15;5.45;;;2.65;;
72205;SDS011;60111;48.286;7.812;2022-07-11T05:41:48;14.75;;;3.02;;
72205;SDS011;60111;48.286;7.812;2022-07-11T05:44:22;6.37;;;2.72;;
72205;SDS011;60111;48.286;7.812;2022-07-11T05:46:58;10.20;;;2.90;;
72205;SDS011;60111;48.286;7.812;2022-07-11T05:49:34;5.33;;;2.40;;
72205;SDS011;60111;48.286;7.812;2022-07-11T05:52:07;3.80;;;2.50;;
72205;SDS011;60111;48.286;7.812;2022-07-11T05:54:40;9.58;;;2.55;;
72205;SDS011;60111;48.286;7.812;2022-07-11T05:57:12;6.47;;;2.50;;
72205;SDS011;60111;48.286;7.812;2022-07-11T05:59:45;6.15;;;2.75;;
72205;SDS011;60111;48.286;7.812;2022-07-11T06:02:18;3.42;;;2.30;;
72205;SDS011;60111;48.286;7.812;2022-07-11T06:04:50;8.88;;;2.60;;
72205;SDS011;60111;48.286;7.812;2022-07-11T06:07:23;8.25;;;2.35;;
72205;SDS011;60111;48.286;7.812;2022-07-11T06:10:13;4.17;;;2.60;;
72205;SDS011;60111;48.286;7.812;2022-07-11T06:12:46;5.87;;;2.70;;
72205;SDS011;60111;48.286;7.812;2022-07-11T06:15:18;6.62;;;2.80;;
72205;SDS011;60111;48.286;7.812;2022-07-11T06:17:51;3.08;;;2.40;;
72205;SDS011;60111;48.286;7.812;2022-07-11T06:20:24;5.30;;;2.30;;
72205;SDS011;60111;48.286;7.812;2022-07-11T06:22:56;6.37;;;2.50;;
72205;SDS011;60111;48.286;7.812;2022-07-11T06:25:29;4.53;;;2.25;;
72205;SDS011;60111;48.286;7.812;2022-07-11T06:28:02;3.08;;;2.30;;
72205;SDS011;60111;48.286;7.812;2022-07-11T06:30:35;3.23;;;2.13;;
72205;SDS011;60111;48.286;7.812;2022-07-11T06:33:08;2.60;;;2.20;;
72205;SDS011;60111;48.286;7.812;2022-07-11T06:35:40;4.37;;;2.35;;
72205;SDS011;60111;48.286;7.812;2022-07-11T06:38:14;5.53;;;2.20;;
72205;SDS011;60111;48.286;7.812;2022-07-11T06:43:19;2.95;;;2.35;;
72205;SDS011;60111;48.286;7.812;2022-07-11T06:45:51;6.17;;;2.72;;
72205;SDS011;60111;48.286;7.812;2022-07-11T06:48:24;6.22;;;2.12;;
72205;SDS011;60111;48.286;7.812;2022-07-11T06:50:57;10.05;;;2.55;;
72205;SDS011;60111;48.286;7.812;2022-07-11T06:53:30;4.85;;;2.05;;
72205;SDS011;60111;48.286;7.812;2022-07-11T06:56:03;3.13;;;2.53;;
72205;SDS011;60111;48.286;7.812;2022-07-11T06:58:37;4.78;;;2.17;;
72205;SDS011;60111;48.286;7.812;2022-07-11T07:01:09;2.27;;;2.07;;
72205;SDS011;60111;48.286;7.812;2022-07-11T07:03:42;2.17;;;2.03;;
72205;SDS011;60111;48.286;7.812;2022-07-11T07:06:14;5.85;;;1.98;;
72205;SDS011;60111;48.286;7.812;2022-07-11T07:08:47;6.50;;;2.10;;
72205;SDS011;60111;48.286;7.812;2022-07-11T07:11:20;2.70;;;2.20;;
72205;SDS011;60111;48.286;7.812;2022-07-11T07:13:52;4.45;;;2.25;;
72205;SDS011;60111;48.286;7.812;2022-07-11T07:16:25;4.93;;;2.00;;
72205;SDS011;60111;48.286;7.812;2022-07-11T07:18:57;4.08;;;1.77;;
72205;SDS011;60111;48.286;7.812;2022-07-11T07:21:30;3.52;;;2.33;;
72205;SDS011;60111;48.286;7.812;2022-07-11T07:24:03;2.72;;;2.10;;
72205;SDS011;60111;48.286;7.812;2022-07-11T07:26:37;5.27;;;2.30;;
72205;SDS011;60111;48.286;7.812;2022-07-11T07:29:09;4.90;;;1.90;;
72205;SDS011;60111;48.286;7.812;2022-07-11T07:31:42;2.20;;;2.00;;
72205;SDS011;60111;48.286;7.812;2022-07-11T07:34:15;5.50;;;2.27;;
72205;SDS011;60111;48.286;7.812;2022-07-11T07:36:48;4.70;;;2.00;;
72205;SDS011;60111;48.286;7.812;2022-07-11T07:39:20;2.55;;;1.80;;
72205;SDS011;60111;48.286;7.812;2022-07-11T07:41:53;2.30;;;1.92;;
72205;SDS011;60111;48.286;7.812;2022-07-11T07:44:26;3.97;;;1.87;;
72205;SDS011;60111;48.286;7.812;2022-07-11T07:46:59;2.42;;;1.80;;
72205;SDS011;60111;48.286;7.812;2022-07-11T07:49:31;5.72;;;1.95;;
72205;SDS011;60111;48.286;7.812;2022-07-11T07:52:04;2.50;;;1.70;;
72205;SDS011;60111;48.286;7.812;2022-07-11T07:54:37;2.25;;;1.80;;
72205;SDS011;60111;48.286;7.812;2022-07-11T07:57:10;3.47;;;1.90;;
72205;SDS011;60111;48.286;7.812;2022-07-11T07:59:42;1.72;;;1.62;;
72205;SDS011;60111;48.286;7.812;2022-07-11T08:02:15;4.87;;;1.60;;
72205;SDS011;60111;48.286;7.812;2022-07-11T08:04:47;2.00;;;1.50;;
72205;SDS011;60111;48.286;7.812;2022-07-11T08:07:20;2.92;;;1.90;;
72205;SDS011;60111;48.286;7.812;2022-07-11T08:09:53;3.67;;;2.00;;
72205;SDS011;60111;48.286;7.812;2022-07-11T08:12:25;2.10;;;1.90;;
72205;SDS011;60111;48.286;7.812;2022-07-11T08:14:58;3.37;;;1.67;;
72205;SDS011;60111;48.286;7.812;2022-07-11T08:17:31;4.42;;;2.08;;
72205;SDS011;60111;48.286;7.812;2022-07-11T08:20:03;3.30;;;1.65;;
72205;SDS011;60111;48.286;7.812;2022-07-11T08:22:37;4.08;;;1.70;;
72205;SDS011;60111;48.286;7.812;2022-07-11T08:25:09;1.90;;;1.60;;
72205;SDS011;60111;48.286;7.812;2022-07-11T08:27:42;2.65;;;1.52;;
72205;SDS011;60111;48.286;7.812;2022-07-11T08:30:15;2.40;;;1.60;;
72205;SDS011;60111;48.286;7.812;2022-07-11T08:32:47;2.05;;;1.45;;
72205;SDS011;60111;48.286;7.812;2022-07-11T08:35:20;1.80;;;1.47;;
72205;SDS011;60111;48.286;7.812;2022-07-11T08:37:53;3.00;;;1.80;;
72205;SDS011;60111;48.286;7.812;2022-07-11T08:40:25;1.65;;;1.50;;
72205;SDS011;60111;48.286;7.812;2022-07-11T08:42:58;1.50;;;1.40;;
72205;SDS011;60111;48.286;7.812;2022-07-11T08:45:31;1.52;;;1.40;;
72205;SDS011;60111;48.286;7.812;2022-07-11T08:48:04;1.47;;;1.37;;
72205;SDS011;60111;48.286;7.812;2022-07-11T08:50:39;1.55;;;1.40;;
72205;SDS011;60111;48.286;7.812;2022-07-11T08:53:12;2.10;;;1.30;;
72205;SDS011;60111;48.286;7.812;2022-07-11T08:55:45;1.77;;;1.15;;
72205;SDS011;60111;48.286;7.812;2022-07-11T08:58:18;1.92;;;1.27;;
72205;SDS011;60111;48.286;7.812;2022-07-11T09:00:51;1.83;;;1.33;;
72205;SDS011;60111;48.286;7.812;2022-07-11T09:03:24;1.53;;;1.40;;
72205;SDS011;60111;48.286;7.812;2022-07-11T09:05:57;3.20;;;1.17;;
72205;SDS011;60111;48.286;7.812;2022-07-11T09:08:30;2.02;;;1.22;;
72205;SDS011;60111;48.286;7.812;2022-07-11T09:11:03;1.17;;;1.13;;
72205;SDS011;60111;48.286;7.812;2022-07-11T09:13:37;6.03;;;1.40;;
72205;SDS011;60111;48.286;7.812;2022-07-11T09:16:10;2.15;;;1.20;;
72205;SDS011;60111;48.286;7.812;2022-07-11T09:18:42;2.58;;;1.20;;
72205;SDS011;60111;48.286;7.812;2022-07-11T09:21:15;3.35;;;1.30;;
72205;SDS011;60111;48.286;7.812;2022-07-11T09:24:06;1.87;;;1.27;;
72205;SDS011;60111;48.286;7.812;2022-07-11T09:26:56;2.20;;;1.45;;
72205;SDS011;60111;48.286;7.812;2022-07-11T09:29:29;2.47;;;1.30;;
72205;SDS011;60111;48.286;7.812;2022-07-11T09:32:02;3.05;;;1.20;;
72205;SDS011;60111;48.286;7.812;2022-07-11T09:34:34;1.60;;;1.20;;
72205;SDS011;60111;48.286;7.812;2022-07-11T09:37:07;3.33;;;1.20;;
72205;SDS011;60111;48.286;7.812;2022-07-11T09:39:40;3.30;;;1.07;;
72205;SDS011;60111;48.286;7.812;2022-07-11T09:42:13;1.40;;;1.30;;
72205;SDS011;60111;48.286;7.812;2022-07-11T09:44:45;1.27;;;1.17;;
72205;SDS011;60111;48.286;7.812;2022-07-11T09:47:18;1.60;;;1.47;;
72205;SDS011;60111;48.286;7.812;2022-07-11T09:49:51;3.17;;;1.32;;
72205;SDS011;60111;48.286;7.812;2022-07-11T09:54:58;2.83;;;1.20;;
72205;SDS011;60111;48.286;7.812;2022-07-11T09:57:36;2.00;;;1.30;;
72205;SDS011;60111;48.286;7.812;2022-07-11T10:00:10;1.60;;;1.20;;
72205;SDS011;60111;48.286;7.812;2022-07-11T10:02:43;1.25;;;1.20;;
72205;SDS011;60111;48.286;7.812;2022-07-11T10:05:16;1.25;;;1.15;;
72205;SDS011;60111;48.286;7.812;2022-07-11T10:07:48;3.58;;;1.30;;
72205;SDS011;60111;48.286;7.812;2022-07-11T10:10:21;1.67;;;1.40;;
72205;SDS011;60111;48.286;7.812;2022-07-11T10:12:54;1.50;;;1.40;;
72205;SDS011;60111;48.286;7.812;2022-07-11T10:15:34;1.40;;;1.27;;
72205;SDS011;60111;48.286;7.812;2022-07-11T10:21:09;2.58;;;1.30;;
72205;SDS011;60111;48.286;7.812;2022-07-11T10:26:36;3.40;;;1.35;;
72205;SDS011;60111;48.286;7.812;2022-07-11T10:29:15;2.53;;;1.50;;
72205;SDS011;60111;48.286;7.812;2022-07-11T10:34:40;1.82;;;1.47;;
72205;SDS011;60111;48.286;7.812;2022-07-11T10:37:13;1.72;;;1.40;;
72205;SDS011;60111;48.286;7.812;2022-07-11T10:39:58;4.12;;;1.77;;
72205;SDS011;60111;48.286;7.812;2022-07-11T10:42:37;2.77;;;1.60;;
72205;SDS011;60111;48.286;7.812;2022-07-11T10:45:11;2.52;;;1.47;;
72205;SDS011;60111;48.286;7.812;2022-07-11T10:47:44;2.05;;;1.40;;
72205;SDS011;60111;48.286;7.812;2022-07-11T10:50:25;1.30;;;1.20;;
72205;SDS011;60111;48.286;7.812;2022-07-11T10:52:55;4.95;;;1.70;;
72205;SDS011;60111;48.286;7.812;2022-07-11T10:55:33;3.00;;;1.37;;
72205;SDS011;60111;48.286;7.812;2022-07-11T10:58:25;2.60;;;1.70;;
72205;SDS011;60111;48.286;7.812;2022-07-11T11:01:08;1.67;;;1.45;;
72205;SDS011;60111;48.286;7.812;2022-07-11T11:03:45;1.60;;;1.35;;
72205;SDS011;60111;48.286;7.812;2022-07-11T11:06:18;3.33;;;1.50;;
72205;SDS011;60111;48.286;7.812;2022-07-11T11:08:52;2.33;;;1.30;;
72205;SDS011;60111;48.286;7.812;2022-07-11T11:14:21;3.12;;;1.40;;
72205;SDS011;60111;48.286;7.812;2022-07-11T11:17:34;1.65;;;1.40;;
72205;SDS011;60111;48.286;7.812;2022-07-11T11:22:23;3.15;;;1.40;;
72205;SDS011;60111;48.286;7.812;2022-07-11T11:24:56;1.92;;;1.07;;
72205;SDS011;60111;48.286;7.812;2022-07-11T11:27:29;1.57;;;1.10;;
72205;SDS011;60111;48.286;7.812;2022-07-11T11:30:02;1.75;;;1.07;;
72205;SDS011;60111;48.286;7.812;2022-07-11T11:32:37;3.83;;;1.10;;
72205;SDS011;60111;48.286;7.812;2022-07-11T11:35:10;2.33;;;1.30;;
72205;SDS011;60111;48.286;7.812;2022-07-11T11:37:43;1.13;;;1.00;;
72205;SDS011;60111;48.286;7.812;2022-07-11T11:40:16;1.50;;;1.00;;
72205;SDS011;60111;48.286;7.812;2022-07-11T11:42:49;1.60;;;1.00;;
72205;SDS011;60111;48.286;7.812;2022-07-11T11:45:22;1.27;;;1.00;;
72205;SDS011;60111;48.286;7.812;2022-07-11T11:47:54;2.13;;;1.33;;
72205;SDS011;60111;48.286;7.812;2022-07-11T11:50:27;2.37;;;1.10;;
72205;SDS011;60111;48.286;7.812;2022-07-11T11:53:00;1.67;;;1.22;;
72205;SDS011;60111;48.286;7.812;2022-07-11T11:55:35;2.03;;;1.27;;
72205;SDS011;60111;48.286;7.812;2022-07-11T11:58:07;1.85;;;1.27;;
72205;SDS011;60111;48.286;7.812;2022-07-11T12:00:41;3.57;;;1.50;;
72205;SDS011;60111;48.286;7.812;2022-07-11T12:03:13;3.35;;;1.40;;
72205;SDS011;60111;48.286;7.812;2022-07-11T12:05:55;1.37;;;1.20;;
72205;SDS011;60111;48.286;7.812;2022-07-11T12:08:27;1.40;;;1.30;;
72205;SDS011;60111;48.286;7.812;2022-07-11T12:11:00;1.97;;;1.33;;
72205;SDS011;60111;48.286;7.812;2022-07-11T12:13:32;7.50;;;1.50;;
72205;SDS011;60111;48.286;7.812;2022-07-11T12:16:11;2.67;;;1.20;;
72205;SDS011;60111;48.286;7.812;2022-07-11T12:19:06;1.90;;;1.40;;
72205;SDS011;60111;48.286;7.812;2022-07-11T12:21:41;1.32;;;1.02;;
72205;SDS011;60111;48.286;7.812;2022-07-11T12:24:16;1.83;;;1.30;;
72205;SDS011;60111;48.286;7.812;2022-07-11T12:26:54;5.23;;;1.60;;
72205;SDS011;60111;48.286;7.812;2022-07-11T12:29:27;4.50;;;1.60;;
72205;SDS011;60111;48.286;7.812;2022-07-11T12:32:00;1.30;;;1.20;;
72205;SDS011;60111;48.286;7.812;2022-07-11T12:37:12;4.92;;;1.30;;
72205;SDS011;60111;48.286;7.812;2022-07-11T12:39:48;1.98;;;1.30;;
72205;SDS011;60111;48.286;7.812;2022-07-11T12:42:30;1.72;;;1.32;;
72205;SDS011;60111;48.286;7.812;2022-07-11T12:45:10;5.85;;;1.30;;
72205;SDS011;60111;48.286;7.812;2022-07-11T12:47:42;1.75;;;1.32;;
72205;SDS011;60111;48.286;7.812;2022-07-11T12:52:53;1.32;;;1.12;;
72205;SDS011;60111;48.286;7.812;2022-07-11T12:55:28;1.55;;;1.12;;
72205;SDS011;60111;48.286;7.812;2022-07-11T12:58:04;3.70;;;1.30;;
72205;SDS011;60111;48.286;7.812;2022-07-11T13:00:42;3.17;;;1.30;;
72205;SDS011;60111;48.286;7.812;2022-07-11T13:03:17;1.65;;;1.40;;
72205;SDS011;60111;48.286;7.812;2022-07-11T13:05:53;3.50;;;1.32;;
72205;SDS011;60111;48.286;7.812;2022-07-11T13:08:27;3.37;;;1.10;;
72205;SDS011;60111;48.286;7.812;2022-07-11T13:11:14;2.58;;;1.37;;
72205;SDS011;60111;48.286;7.812;2022-07-11T13:13:49;1.22;;;1.12;;
72205;SDS011;60111;48.286;7.812;2022-07-11T13:16:22;2.00;;;1.40;;
72205;SDS011;60111;48.286;7.812;2022-07-11T13:18:54;4.03;;;1.50;;
72205;SDS011;60111;48.286;7.812;2022-07-11T13:24:00;2.90;;;1.40;;
72205;SDS011;60111;48.286;7.812;2022-07-11T13:26:33;4.05;;;1.20;;
72205;SDS011;60111;48.286;7.812;2022-07-11T13:29:06;2.07;;;1.47;;
72205;SDS011;60111;48.286;7.812;2022-07-11T13:31:38;3.47;;;1.60;;
72205;SDS011;60111;48.286;7.812;2022-07-11T13:34:11;5.47;;;1.60;;
72205;SDS011;60111;48.286;7.812;2022-07-11T13:36:45;2.98;;;1.47;;
72205;SDS011;60111;48.286;7.812;2022-07-11T13:39:18;2.10;;;1.40;;
72205;SDS011;60111;48.286;7.812;2022-07-11T13:41:50;1.62;;;1.42;;
72205;SDS011;60111;48.286;7.812;2022-07-11T13:44:23;1.60;;;1.42;;
72205;SDS011;60111;48.286;7.812;2022-07-11T13:46:56;2.40;;;1.73;;
72205;SDS011;60111;48.286;7.812;2022-07-11T13:49:29;3.65;;;1.60;;
72205;SDS011;60111;48.286;7.812;2022-07-11T13:52:02;6.75;;;1.80;;
72205;SDS011;60111;48.286;7.812;2022-07-11T13:54:35;3.83;;;1.73;;
72205;SDS011;60111;48.286;7.812;2022-07-11T13:57:08;4.65;;;1.40;;
72205;SDS011;60111;48.286;7.812;2022-07-11T13:59:41;1.98;;;1.57;;
72205;SDS011;60111;48.286;7.812;2022-07-11T14:02:13;3.02;;;1.65;;
72205;SDS011;60111;48.286;7.812;2022-07-11T14:04:46;5.03;;;1.80;;
72205;SDS011;60111;48.286;7.812;2022-07-11T14:07:19;3.50;;;1.63;;
72205;SDS011;60111;48.286;7.812;2022-07-11T14:09:52;3.08;;;1.52;;
72205;SDS011;60111;48.286;7.812;2022-07-11T14:12:24;3.62;;;1.75;;
72205;SDS011;60111;48.286;7.812;2022-07-11T14:14:57;3.77;;;1.63;;
72205;SDS011;60111;48.286;7.812;2022-07-11T14:17:30;2.47;;;1.77;;
72205;SDS011;60111;48.286;7.812;2022-07-11T14:20:03;2.22;;;1.80;;
72205;SDS011;60111;48.286;7.812;2022-07-11T14:25:08;4.00;;;1.55;;
72205;SDS011;60111;48.286;7.812;2022-07-11T14:27:41;3.08;;;1.60;;
72205;SDS011;60111;48.286;7.812;2022-07-11T14:30:13;3.72;;;1.72;;
72205;SDS011;60111;48.286;7.812;2022-07-11T14:32:46;1.75;;;1.40;;
72205;SDS011;60111;48.286;7.812;2022-07-11T14:35:18;3.77;;;1.40;;
72205;SDS011;60111;48.286;7.812;2022-07-11T14:37:51;3.33;;;1.30;;
72205;SDS011;60111;48.286;7.812;2022-07-11T14:40:24;3.27;;;1.80;;
72205;SDS011;60111;48.286;7.812;2022-07-11T14:42:57;3.72;;;1.62;;
72205;SDS011;60111;48.286;7.812;2022-07-11T14:45:29;5.20;;;1.98;;
72205;SDS011;60111;48.286;7.812;2022-07-11T14:48:02;2.40;;;1.55;;
72205;SDS011;60111;48.286;7.812;2022-07-11T14:50:35;2.20;;;1.43;;
72205;SDS011;60111;48.286;7.812;2022-07-11T14:53:08;1.70;;;1.60;;
72205;SDS011;60111;48.286;7.812;2022-07-11T14:55:40;5.42;;;1.82;;
72205;SDS011;60111;48.286;7.812;2022-07-11T14:58:14;3.47;;;1.52;;
72205;SDS011;60111;48.286;7.812;2022-07-11T15:00:46;1.98;;;1.50;;
72205;SDS011;60111;48.286;7.812;2022-07-11T15:03:19;4.00;;;1.57;;
72205;SDS011;60111;48.286;7.812;2022-07-11T15:06:16;3.52;;;1.42;;
72205;SDS011;60111;48.286;7.812;2022-07-11T15:08:45;3.67;;;1.50;;
72205;SDS011;60111;48.286;7.812;2022-07-11T15:11:36;3.22;;;1.40;;
72205;SDS011;60111;48.286;7.812;2022-07-11T15:14:26;5.75;;;1.40;;
72205;SDS011;60111;48.286;7.812;2022-07-11T15:16:59;2.73;;;1.50;;
72205;SDS011;60111;48.286;7.812;2022-07-11T15:19:32;2.52;;;1.30;;
72205;SDS011;60111;48.286;7.812;2022-07-11T15:22:04;2.72;;;1.80;;
72205;SDS011;60111;48.286;7.812;2022-07-11T15:24:38;8.63;;;1.90;;
72205;SDS011;60111;48.286;7.812;2022-07-11T15:27:10;3.37;;;1.50;;
72205;SDS011;60111;48.286;7.812;2022-07-11T15:29:43;2.98;;;1.72;;
72205;SDS011;60111;48.286;7.812;2022-07-11T15:32:16;7.90;;;1.42;;
72205;SDS011;60111;48.286;7.812;2022-07-11T15:34:48;3.87;;;1.50;;
72205;SDS011;60111;48.286;7.812;2022-07-11T15:37:22;2.60;;;1.73;;
72205;SDS011;60111;48.286;7.812;2022-07-11T15:39:54;3.45;;;1.50;;
72205;SDS011;60111;48.286;7.812;2022-07-11T15:42:27;5.58;;;1.57;;
72205;SDS011;60111;48.286;7.812;2022-07-11T15:44:59;3.10;;;1.40;;
72205;SDS011;60111;48.286;7.812;2022-07-11T15:47:32;4.33;;;1.50;;
72205;SDS011;60111;48.286;7.812;2022-07-11T15:50:05;3.97;;;1.33;;
72205;SDS011;60111;48.286;7.812;2022-07-11T15:52:38;2.40;;;1.23;;
72205;SDS011;60111;48.286;7.812;2022-07-11T15:55:11;4.15;;;1.62;;
72205;SDS011;60111;48.286;7.812;2022-07-11T15:57:43;2.37;;;1.30;;